Airfield :







YOU CAN JOIN US ON...

 
LOGIN :

Register | Disclaimer

   EN    FR    IT 

 









Legend :    VFR   Marginal VFR   IFR   Intensive IFR   Very Intensive IFR
Visi :
Ceiling :
>= 8 km
>= 3000ft
5 to 8 km
1000 to 3000 ft
1500m to 5 km
500 to 1000 ft
800 to 1500m
200 to 500 ft
< 800m
< 200 ft
Symbols :   Thunderstorms  Fog  Heavy snow  Heavy precipitations  Wind > 20 kt






- Airport Elevation : 110 ft
- IATA code : YFB


CYFB - Iqaluit

CURRENT METAR :
  • 241000Z 30005KT 15SM IC FEW022 M33/M37 A2991 RMK SC1 SC TR SLP135

EXPIRED METARs :
  • 240900Z 32010KT 15SM IC DRSN FEW022 M33/M37 A2989 RMK SC1 SLP131
  • 240800Z 32009KT 12SM IC DRSN SKC M33/M37 A2989 RMK SLP129

TAF AMD TAF CYFB
Valid from the 24 at 08:00 until the 25 at 06:00 UTC


240804Z 2408/2506 34015KT P6SM FEW025
TEMPO 2408/2506 4SM IC RMK NXT FCST BY 241200Z



MET'MAP, your aeronautical weather chart ! - Copyright ORBIFLY December 2007 - Disclaimer

ORBIFLY MET'MAP TEAM :

Programming & Development : Alexandra Zaïnal
Concept & original design : Baudouin d'Aumeries
Assistance for programming : Marc-Olivier Méhu
Technical & hardware support : Manuel Goepfert

Contact : metmap@orbifly.com




SOURCES & CREDITS :

   NOAA